This is the latest recevied weather packets stored in our database for station/object K0QED. If no packets are shown the sender has not sent any weather packets the latest 10 day(s).
| Time | Temp. | Humidity | Pressure | Rain* | Wind** | Luminosity | Snow |
|---|---|---|---|---|---|---|---|
| 1788183275 | 12.78° C | 77% | 1027.9 hPa | 0 mm | - | 39 W/m² | - |
| 1788182970 | 12.78° C | 76% | 1028.1 hPa | 0 mm | - | 42 W/m² | - |
| 1788182665 | 11.67° C | 81% | 1028.4 hPa | 0 mm | - | 32 W/m² | - |
| 1788182364 | 12.22° C | 79% | 1028 hPa | 0 mm | - | 23 W/m² | - |
| 1788182060 | 12.22° C | 74% | 1027.7 hPa | 0 mm | - | 19 W/m² | - |
| 1788181756 | 12.22° C | 74% | 1027.9 hPa | 0 mm | - | 16 W/m² | - |
| 1788181451 | 11.67° C | 76% | 1027.5 hPa | 0 mm | - | 13 W/m² | - |
| 1788181150 | 11.67° C | 75% | 1027.4 hPa | 0 mm | - | 12 W/m² | - |
| 1788180845 | 12.78° C | 74% | 1027.2 hPa | 0 mm | - | 9 W/m² | - |
| 1788180541 | 13.33° C | 67% | 1027.1 hPa | 0 mm | - | 7 W/m² | - |
| 1788180236 | 12.78° C | 70% | 1027.1 hPa | 0 mm | - | 5 W/m² | - |
| 1788179931 | 12.78° C | 71% | 1027 hPa | 0 mm | - | 2 W/m² | - |
| 1788179630 | 12.78° C | 70% | 1027 hPa | 0 mm | - | 3 W/m² | - |
| 1788179325 | 12.78° C | 71% | 1027.1 hPa | 0 mm | - | 1 W/m² | - |
| 1788179021 | 12.22° C | 72% | 1026.7 hPa | 0 mm | - | 0 W/m² | - |
| 1788178721 | 12.78° C | 72% | 1027 hPa | 0 mm | - | 0 W/m² | - |
| 1788178417 | 13.33° C | 69% | 1026.9 hPa | 0 mm | - | 0 W/m² | - |
| 1788178112 | 13.33° C | 68% | 1026.7 hPa | 0 mm | - | 0 W/m² | - |
| 1788177806 | 12.78° C | 69% | 1026.6 hPa | 0 mm | - | 0 W/m² | - |
| 1788177501 | 12.22° C | 72% | 1026.9 hPa | 0 mm | - | 0 W/m² | - |
| 1788177198 | 11.67° C | 75% | 1026.9 hPa | 0 mm | - | 0 W/m² | - |
| 1788176897 | 11.67° C | 78% | 1026.9 hPa | 0 mm | - | 0 W/m² | - |
| 1788176596 | 12.22° C | 73% | 1026.9 hPa | 0 mm | - | 0 W/m² | - |
| 1788176292 | 11.67° C | 75% | 1027 hPa | 0 mm | - | 0 W/m² | - |
| 1788175992 | 12.22° C | 77% | 1026.5 hPa | 0 mm | - | 0 W/m² | - |
* Rain latest hour (hover to see other rain measurements)
** Current wind speed in m/s (hover to see current wind gust speed)